Time;durP1;ratioP1;P1;durP2;ratioP2;P2;SDS_P1;SDS_P2;PMS_P1;PMS_P2;Temp;Humidity;BMP_temperature;BMP_pressure;BME280_temperature;BME280_humidity;BME280_pressure;Samples;Min_cycle;Max_cycle;Signal;HPM_P1;HPM_P2
2022/03/03 00:00:20;;;;;;;;;;;;;;;0.90;49.63;98294.47;4996285;28;19925;-79
2022/03/03 00:02:49;;;;;;;;;;;;;;;0.98;49.60;98296.78;4996971;28;19925;-79
2022/03/03 00:05:17;;;;;;;;;;;;;;;0.87;49.78;98294.16;4997286;28;19940;-81
2022/03/03 00:07:45;;;;;;;;;;;;;;;0.77;49.81;98295.59;5000258;28;20019;-79
2022/03/03 00:10:13;;;;;;;;;;;;;;;0.54;51.35;98292.19;4997958;28;20049;-80
2022/03/03 00:12:42;;;;;;;;;;;;;;;0.68;50.67;98297.00;4998686;28;19995;-83
2022/03/03 00:15:10;;;;;;;;;;;;;;;0.75;50.32;98296.88;4996365;28;19925;-81
2022/03/03 00:17:38;;;;;;;;;;;;;;;0.69;50.65;98298.66;4999174;28;19957;-83
2022/03/03 00:20:06;;;;;;;;;;;;;;;0.71;49.61;98306.44;4996554;28;19979;-78
2022/03/03 00:22:34;;;;;;;;;;;;;;;0.69;50.08;98297.81;5003235;28;19936;-79
2022/03/03 00:25:04;;;;;;;;;;;;;;;0.58;50.01;98298.66;4999774;28;19926;-82
2022/03/03 00:27:34;;;;;;;;;;;;;;;0.47;50.18;98300.31;5005047;28;19925;-80
2022/03/03 00:30:03;;;;;;;;;;;;;;;0.49;50.38;98299.06;5002593;28;19933;-79
2022/03/03 00:32:37;;;;;;;;;;;;;;;0.56;50.09;98303.44;5002823;28;19940;-81
2022/03/03 00:35:05;;;;;;;;;;;;;;;0.64;50.04;98311.09;5000354;28;19933;-81
2022/03/03 00:37:33;;;;;;;;;;;;;;;0.66;49.76;98309.00;4998466;28;19968;-81
2022/03/03 00:40:01;;;;;;;;;;;;;;;0.63;49.74;98304.13;4997366;28;19926;-83
2022/03/03 00:42:29;;;;;;;;;;;;;;;0.61;49.94;98298.22;5005541;28;19926;-81
2022/03/03 00:45:24;;;;;;;;;;;;;;;0.49;49.87;98304.41;4998359;28;19941;-81
2022/03/03 00:47:51;;;;;;;;;;;;;;;0.50;49.96;98299.88;5002278;28;19980;-80
2022/03/03 00:50:19;;;;;;;;;;;;;;;0.39;50.22;98304.19;5000284;28;19937;-81
2022/03/03 00:52:48;;;;;;;;;;;;;;;0.48;50.33;98301.94;4999456;28;19932;-81
2022/03/03 00:55:16;;;;;;;;;;;;;;;0.51;50.72;98291.59;4996184;28;19965;-83
2022/03/03 00:57:43;;;;;;;;;;;;;;;0.64;50.06;98293.22;4996565;28;19932;-81
2022/03/03 01:00:11;;;;;;;;;;;;;;;0.56;50.13;98295.44;4998115;28;19925;-79
2022/03/03 01:02:41;;;;;;;;;;;;;;;0.31;50.70;98293.03;4999299;28;20388;-81
2022/03/03 01:05:09;;;;;;;;;;;;;;;0.07;51.58;98290.41;4997085;28;19925;-81
2022/03/03 01:07:37;;;;;;;;;;;;;;;0.17;51.63;98296.00;5003011;28;19929;-81
2022/03/03 01:10:06;;;;;;;;;;;;;;;0.03;52.45;98296.47;4996604;28;20006;-78
2022/03/03 01:12:34;;;;;;;;;;;;;;;0.17;51.75;98297.84;4998055;28;19976;-81
2022/03/03 01:15:02;;;;;;;;;;;;;;;0.17;51.84;98300.53;4997921;28;19965;-80
2022/03/03 01:17:31;;;;;;;;;;;;;;;0.15;52.05;98299.91;4996731;28;19926;-79
2022/03/03 01:20:00;;;;;;;;;;;;;;;0.21;51.76;98304.31;4999576;28;19965;-82
2022/03/03 01:22:28;;;;;;;;;;;;;;;0.10;52.49;98308.63;4997062;28;19933;-79
2022/03/03 01:24:56;;;;;;;;;;;;;;;0.14;51.59;98300.97;5002912;28;20006;-79
2022/03/03 01:27:25;;;;;;;;;;;;;;;0.13;51.49;98294.00;4999998;28;19937;-81
2022/03/03 01:29:52;;;;;;;;;;;;;;;0.07;51.58;98285.06;4996669;28;20016;-80
2022/03/03 01:32:21;;;;;;;;;;;;;;;0.06;51.27;98283.47;4997503;28;20465;-81
2022/03/03 01:34:48;;;;;;;;;;;;;;;0.07;51.24;98284.28;4996229;28;19926;-82
2022/03/03 01:37:17;;;;;;;;;;;;;;;0.01;51.79;98282.53;4995638;28;20008;-81
2022/03/03 01:39:45;;;;;;;;;;;;;;;-0.42;52.94;98281.03;4994781;28;19930;-80
2022/03/03 01:42:13;;;;;;;;;;;;;;;-0.29;52.57;98286.13;4999129;28;19932;-81
2022/03/03 01:44:42;;;;;;;;;;;;;;;-0.10;52.27;98290.31;4999495;28;19926;-81
2022/03/03 01:47:16;;;;;;;;;;;;;;;0.03;52.01;98277.75;4999730;28;19926;-80
2022/03/03 01:49:43;;;;;;;;;;;;;;;-0.07;52.04;98271.16;4997375;28;19929;-81
2022/03/03 01:52:12;;;;;;;;;;;;;;;0.10;51.72;98273.09;4997740;28;19965;-82
2022/03/03 01:54:41;;;;;;;;;;;;;;;0.10;51.59;98273.91;4998463;28;19952;-80
2022/03/03 01:57:17;;;;;;;;;;;;;;;-0.02;51.91;98265.09;4994992;28;19926;-80
2022/03/03 01:59:48;;;;;;;;;;;;;;;0.03;51.87;98267.06;4999202;28;19925;-80
2022/03/03 02:02:16;;;;;;;;;;;;;;;-0.19;52.39;98262.34;4998662;28;19960;-81
2022/03/03 02:04:44;;;;;;;;;;;;;;;-0.10;51.93;98262.81;4999109;28;19933;-79
2022/03/03 02:07:12;;;;;;;;;;;;;;;-0.18;52.63;98261.28;5002631;28;20340;-79
2022/03/03 02:09:40;;;;;;;;;;;;;;;-0.22;52.45;98259.31;4997175;28;19975;-80
2022/03/03 02:12:09;;;;;;;;;;;;;;;-0.12;52.36;98263.03;4999471;28;19956;-80
2022/03/03 02:14:41;;;;;;;;;;;;;;;-0.31;52.58;98264.22;4996532;28;19929;-79
2022/03/03 02:17:09;;;;;;;;;;;;;;;-0.28;52.55;98251.19;4998976;28;20404;-81
2022/03/03 02:19:37;;;;;;;;;;;;;;;-0.39;52.72;98251.19;4998088;28;19925;-80
2022/03/03 02:22:10;;;;;;;;;;;;;;;-0.35;52.32;98263.03;5000412;28;19932;-81
2022/03/03 02:24:39;;;;;;;;;;;;;;;-0.45;52.77;98257.47;4997380;28;20377;-81
2022/03/03 02:27:07;;;;;;;;;;;;;;;-0.42;52.90;98251.69;5014373;28;19925;-80
2022/03/03 02:29:35;;;;;;;;;;;;;;;-0.43;52.75;98245.50;5003462;28;20445;-81
2022/03/03 02:32:04;;;;;;;;;;;;;;;-0.51;52.60;98250.38;4999104;28;19925;-81
2022/03/03 02:34:32;;;;;;;;;;;;;;;-0.56;52.70;98253.75;4995582;28;19980;-78
2022/03/03 02:36:59;;;;;;;;;;;;;;;-0.56;52.41;98253.75;4994946;28;19929;-80
2022/03/03 02:39:29;;;;;;;;;;;;;;;-0.59;52.52;98251.53;4997409;28;19926;-80
2022/03/03 02:41:57;;;;;;;;;;;;;;;-0.58;52.73;98256.66;4998696;28;20009;-81
2022/03/03 02:44:25;;;;;;;;;;;;;;;-0.59;52.71;98248.84;4997550;28;20574;-82
2022/03/03 02:46:53;;;;;;;;;;;;;;;-0.53;52.24;98239.94;4998617;28;19976;-79
2022/03/03 02:49:22;;;;;;;;;;;;;;;-0.55;52.04;98239.34;4994839;28;19926;-80
2022/03/03 02:51:50;;;;;;;;;;;;;;;-0.68;52.38;98235.06;4994998;28;19933;-80
2022/03/03 02:54:18;;;;;;;;;;;;;;;-0.70;52.50;98223.78;4996007;28;19926;-78
2022/03/03 02:59:32;;;;;;;;;;;;;;;-0.67;52.92;98231.34;4993997;28;19980;-79
2022/03/03 03:02:00;;;;;;;;;;;;;;;-0.59;52.91;98230.19;5001227;28;19926;-78
2022/03/03 03:04:29;;;;;;;;;;;;;;;-0.66;52.52;98240.97;5000550;28;19926;-80
2022/03/03 03:06:56;;;;;;;;;;;;;;;-0.89;53.41;98238.28;5003951;28;19980;-79
2022/03/03 03:09:24;;;;;;;;;;;;;;;-0.97;53.18;98244.75;5007987;28;20352;-79
2022/03/03 03:11:54;;;;;;;;;;;;;;;-1.13;53.90;98248.88;5006148;28;19960;-80
2022/03/03 03:14:21;;;;;;;;;;;;;;;-1.13;53.90;98246.22;5004040;28;20390;-79
2022/03/03 03:16:50;;;;;;;;;;;;;;;-1.12;53.37;98245.19;5001299;28;19930;-79
2022/03/03 03:19:17;;;;;;;;;;;;;;;-1.15;53.63;98231.50;5003040;28;19925;-78
2022/03/03 03:21:45;;;;;;;;;;;;;;;-1.15;53.87;98239.50;4988197;28;19984;-79
2022/03/03 03:24:14;;;;;;;;;;;;;;;-1.17;53.85;98237.06;5002300;28;19937;-81
2022/03/03 03:26:41;;;;;;;;;;;;;;;-1.19;54.12;98241.78;4999156;28;20539;-81
2022/03/03 03:29:10;;;;;;;;;;;;;;;-1.15;53.34;98245.63;5001682;28;19933;-79
2022/03/03 03:31:38;;;;;;;;;;;;;;;-1.18;53.52;98243.41;5001171;28;19948;-79
2022/03/03 03:34:06;;;;;;;;;;;;;;;-1.26;53.59;98237.59;5004273;28;19991;-80
2022/03/03 03:36:35;;;;;;;;;;;;;;;-1.30;54.45;98231.91;4984479;28;20028;-79
2022/03/03 03:39:02;;;;;;;;;;;;;;;-1.15;53.15;98229.63;4997624;28;20396;-80
2022/03/03 03:41:30;;;;;;;;;;;;;;;-1.19;53.68;98228.47;5006202;28;19930;-79
2022/03/03 03:43:58;;;;;;;;;;;;;;;-1.25;53.25;98221.38;4997304;28;19926;-79
2022/03/03 03:46:28;;;;;;;;;;;;;;;-1.34;54.38;98220.06;4998715;28;19926;-79
2022/03/03 03:48:56;;;;;;;;;;;;;;;-1.34;53.89;98214.75;4999333;28;19937;-79
2022/03/03 03:51:48;;;;;;;;;;;;;;;-1.28;53.98;98213.00;5000878;28;19941;-79
2022/03/03 03:54:17;;;;;;;;;;;;;;;-1.36;54.23;98214.16;4998312;28;19926;-80
2022/03/03 03:56:45;;;;;;;;;;;;;;;-1.46;54.08;98216.56;4978972;28;19930;-78
2022/03/03 03:59:14;;;;;;;;;;;;;;;-1.44;54.32;98211.81;4999541;28;20019;-79
2022/03/03 04:01:44;;;;;;;;;;;;;;;-1.50;54.61;98212.72;4998691;28;19938;-80
2022/03/03 04:04:12;;;;;;;;;;;;;;;-1.45;54.59;98207.53;4989136;28;19925;-80
2022/03/03 04:06:41;;;;;;;;;;;;;;;-1.56;54.77;98200.31;5001796;28;19949;-79
2022/03/03 04:09:09;;;;;;;;;;;;;;;-1.59;55.04;98199.72;4999380;28;19925;-79
2022/03/03 04:11:36;;;;;;;;;;;;;;;-1.40;54.33;98194.34;5000726;28;20495;-80
2022/03/03 04:14:04;;;;;;;;;;;;;;;-1.30;54.37;98193.78;4995908;28;19926;-79
2022/03/03 04:16:32;;;;;;;;;;;;;;;-1.70;55.62;98186.38;4996306;28;19932;-81
2022/03/03 04:19:02;;;;;;;;;;;;;;;-1.49;54.22;98179.69;4997161;28;20455;-79
2022/03/03 04:21:31;;;;;;;;;;;;;;;-1.49;54.62;98175.19;5003609;28;19926;-78
2022/03/03 04:23:59;;;;;;;;;;;;;;;-1.37;54.27;98178.72;4997249;28;19933;-80
2022/03/03 04:26:27;;;;;;;;;;;;;;;-1.29;54.33;98174.06;5003222;28;19926;-79
2022/03/03 04:28:55;;;;;;;;;;;;;;;-1.34;54.41;98167.56;5002526;28;20008;-79
2022/03/03 04:31:23;;;;;;;;;;;;;;;-1.51;55.32;98152.47;5002580;28;19961;-79
2022/03/03 04:33:51;;;;;;;;;;;;;;;-1.50;55.24;98146.09;5000625;28;19929;-78
2022/03/03 04:36:21;;;;;;;;;;;;;;;-1.73;55.53;98141.53;4996361;28;20078;-79
2022/03/03 04:38:50;;;;;;;;;;;;;;;-1.78;56.04;98134.22;5005423;28;19941;-82
2022/03/03 04:41:18;;;;;;;;;;;;;;;-1.92;56.38;98132.75;4997490;28;19930;-79
2022/03/03 04:43:48;;;;;;;;;;;;;;;-1.97;56.68;98128.13;4997880;28;19940;-82
2022/03/03 04:46:16;;;;;;;;;;;;;;;-1.68;56.86;98121.16;4997146;28;19933;-79
2022/03/03 04:48:45;;;;;;;;;;;;;;;-1.50;56.33;98119.47;4997547;28;20016;-78
2022/03/03 04:51:12;;;;;;;;;;;;;;;-1.60;56.34;98115.53;5006687;28;19933;-78
2022/03/03 04:53:41;;;;;;;;;;;;;;;-1.71;56.76;98113.59;4996122;28;20068;-79
2022/03/03 04:56:09;;;;;;;;;;;;;;;-1.58;56.22;98110.75;5002694;28;19979;-79
2022/03/03 04:58:38;;;;;;;;;;;;;;;-1.66;56.63;98107.59;4997436;28;20393;-79
2022/03/03 05:01:09;;;;;;;;;;;;;;;-1.86;56.65;98102.59;4995548;28;19980;-80
2022/03/03 05:03:37;;;;;;;;;;;;;;;-1.79;56.66;98089.97;4995976;28;20388;-80
2022/03/03 05:06:05;;;;;;;;;;;;;;;-1.74;57.07;98087.44;4996652;28;19925;-79
2022/03/03 05:08:33;;;;;;;;;;;;;;;-1.90;57.60;98082.78;4997069;28;19965;-81
2022/03/03 05:11:08;;;;;;;;;;;;;;;-1.59;56.77;98101.16;4999477;28;19937;-80
2022/03/03 05:13:36;;;;;;;;;;;;;;;-1.68;57.25;98121.16;4981905;28;19932;-79
2022/03/03 05:16:06;;;;;;;;;;;;;;;-1.96;58.18;98136.94;4996270;28;19926;-78
2022/03/03 05:18:34;;;;;;;;;;;;;;;-2.11;58.65;98137.31;5005464;28;19933;-86
2022/03/03 05:21:05;;;;;;;;;;;;;;;-2.27;58.38;98152.03;4995845;28;20871;-85
2022/03/03 05:23:33;;;;;;;;;;;;;;;-2.20;58.44;98142.13;4995747;28;19925;-79
2022/03/03 05:26:01;;;;;;;;;;;;;;;-1.99;57.26;98142.69;5001248;28;19933;-80
2022/03/03 05:28:33;;;;;;;;;;;;;;;-1.98;57.37;98137.13;5000087;28;19929;-80
2022/03/03 05:31:01;;;;;;;;;;;;;;;-2.04;57.99;98143.34;5001973;28;19934;-81
2022/03/03 05:33:31;;;;;;;;;;;;;;;-1.98;58.00;98136.31;4994993;28;20419;-80
2022/03/03 05:36:00;;;;;;;;;;;;;;;-1.83;57.27;98138.59;4994769;28;19937;-80
2022/03/03 05:38:29;;;;;;;;;;;;;;;-1.80;57.28;98133.63;4998872;28;19930;-80
2022/03/03 05:40:57;;;;;;;;;;;;;;;-1.81;56.50;98132.00;4999190;28;20028;-86
2022/03/03 05:43:25;;;;;;;;;;;;;;;-2.00;57.60;98127.75;4995985;28;19930;-79
2022/03/03 05:45:55;;;;;;;;;;;;;;;-2.03;57.72;98120.22;4989788;28;19973;-88
2022/03/03 05:48:23;;;;;;;;;;;;;;;-1.95;57.30;98112.72;5000303;28;20402;-85
2022/03/03 05:50:51;;;;;;;;;;;;;;;-1.96;57.43;98115.63;4992510;28;19989;-81
2022/03/03 05:53:19;;;;;;;;;;;;;;;-2.18;57.99;98115.31;5001157;28;19932;-85
2022/03/03 05:55:48;;;;;;;;;;;;;;;-2.26;57.81;98111.09;4996602;28;19926;-84
2022/03/03 05:58:19;;;;;;;;;;;;;;;-2.30;57.93;98106.44;4988709;28;19931;-80
2022/03/03 06:00:48;;;;;;;;;;;;;;;-2.28;58.16;98115.81;4989121;28;19932;-89
2022/03/03 06:03:18;;;;;;;;;;;;;;;-2.08;56.56;98112.09;5002996;28;19973;-77
2022/03/03 06:08:43;;;;;;;;;;;;;;;-2.10;56.66;98120.31;4995483;28;19937;-91
2022/03/03 06:11:14;;;;;;;;;;;;;;;-1.97;56.11;98122.81;4989620;28;19969;-92
2022/03/03 06:13:46;;;;;;;;;;;;;;;-2.22;56.64;98130.91;4997476;28;19933;-84
2022/03/03 06:16:17;;;;;;;;;;;;;;;-2.21;56.69;98142.34;5000547;28;19938;-78
2022/03/03 06:18:47;;;;;;;;;;;;;;;-2.32;57.51;98143.09;4989670;28;19969;-90
2022/03/03 06:21:15;;;;;;;;;;;;;;;-2.38;57.59;98140.28;4994157;28;19925;-86
2022/03/03 06:23:43;;;;;;;;;;;;;;;-2.16;56.89;98143.31;4986786;28;19953;-78
2022/03/03 06:26:13;;;;;;;;;;;;;;;-2.38;56.92;98160.78;4985057;28;20320;-84
2022/03/03 06:28:41;;;;;;;;;;;;;;;-2.32;56.94;98157.22;4986201;28;20292;-77
2022/03/03 06:31:10;;;;;;;;;;;;;;;-2.29;56.79;98147.97;4983243;28;19934;-76
2022/03/03 06:33:38;;;;;;;;;;;;;;;-2.15;56.50;98142.25;4995181;28;19926;-78
2022/03/03 06:36:11;;;;;;;;;;;;;;;-2.36;56.86;98150.72;4984941;28;19933;-82
2022/03/03 06:38:39;;;;;;;;;;;;;;;-2.17;56.67;98147.00;4998518;28;20025;-73
2022/03/03 06:41:07;;;;;;;;;;;;;;;-2.09;56.82;98158.38;5000950;28;19933;-76
2022/03/03 06:43:35;;;;;;;;;;;;;;;-2.01;56.88;98155.44;4998953;28;19926;-83
2022/03/03 06:46:06;;;;;;;;;;;;;;;-2.08;56.50;98144.03;5003826;28;19937;-85
2022/03/03 06:48:34;;;;;;;;;;;;;;;-1.87;56.47;98138.22;5002079;28;19975;-87
2022/03/03 06:51:06;;;;;;;;;;;;;;;-1.76;56.43;98142.78;5005916;28;20020;-87
2022/03/03 06:53:36;;;;;;;;;;;;;;;-1.79;56.67;98142.44;5002358;28;19925;-72
2022/03/03 06:56:07;;;;;;;;;;;;;;;-1.82;56.50;98137.53;5003560;28;19934;-75
2022/03/03 06:58:36;;;;;;;;;;;;;;;-1.97;57.13;98135.28;4997161;28;19933;-78
2022/03/03 07:01:08;;;;;;;;;;;;;;;-1.96;57.51;98147.56;4997346;28;19949;-82
2022/03/03 07:03:41;;;;;;;;;;;;;;;-1.66;56.62;98148.38;4996676;28;20393;-79
2022/03/03 07:06:09;;;;;;;;;;;;;;;-1.53;56.02;98135.91;5003345;28;20016;-78
2022/03/03 07:08:45;;;;;;;;;;;;;;;-1.75;56.69;98130.28;5003430;28;20482;-77
2022/03/03 07:11:13;;;;;;;;;;;;;;;-1.43;55.62;98125.50;4998008;28;19961;-79
2022/03/03 07:13:40;;;;;;;;;;;;;;;-1.19;55.08;98118.34;5001538;28;19932;-78
2022/03/03 07:16:14;;;;;;;;;;;;;;;-1.03;54.98;98132.84;5001424;28;20063;-78
2022/03/03 07:18:43;;;;;;;;;;;;;;;-1.05;54.48;98127.75;5000451;28;20322;-80
2022/03/03 07:21:15;;;;;;;;;;;;;;;-0.91;54.38;98128.31;5000137;28;19926;-77
2022/03/03 07:23:46;;;;;;;;;;;;;;;-0.85;53.83;98140.75;5003608;28;19937;-78
2022/03/03 07:26:15;;;;;;;;;;;;;;;-0.67;53.67;98135.28;5004145;28;19926;-77
2022/03/03 07:28:46;;;;;;;;;;;;;;;-1.09;55.06;98140.72;5003652;28;19980;-81
2022/03/03 07:31:14;;;;;;;;;;;;;;;-0.70;54.20;98146.41;5003835;28;19933;-79
2022/03/03 07:33:45;;;;;;;;;;;;;;;-0.50;53.47;98139.91;4998978;28;19926;-78
2022/03/03 07:36:14;;;;;;;;;;;;;;;-0.45;52.73;98143.50;5003363;28;19972;-79
2022/03/03 07:38:42;;;;;;;;;;;;;;;-0.47;53.13;98155.47;5000645;28;19976;-77
2022/03/03 07:41:10;;;;;;;;;;;;;;;-0.26;52.51;98149.53;4998802;28;19937;-74
2022/03/03 07:43:39;;;;;;;;;;;;;;;-0.28;53.11;98143.59;4998342;28;19933;-78
2022/03/03 07:46:06;;;;;;;;;;;;;;;-0.17;52.32;98142.75;5003933;28;19937;-82
2022/03/03 07:48:34;;;;;;;;;;;;;;;-0.37;53.05;98139.69;5003288;28;20325;-77
2022/03/03 07:51:05;;;;;;;;;;;;;;;-0.28;52.77;98148.91;5004964;28;19929;-80
2022/03/03 07:53:33;;;;;;;;;;;;;;;0.04;52.12;98153.84;5004823;28;20283;-77
2022/03/03 07:56:02;;;;;;;;;;;;;;;0.11;52.27;98150.00;5008828;28;19953;-79
2022/03/03 07:58:33;;;;;;;;;;;;;;;0.32;51.67;98161.03;5004721;28;19930;-80
2022/03/03 08:01:03;;;;;;;;;;;;;;;0.10;52.40;98161.69;5003339;28;20417;-82
2022/03/03 08:03:32;;;;;;;;;;;;;;;0.38;51.70;98152.09;5002243;28;20043;-78
2022/03/03 08:06:00;;;;;;;;;;;;;;;0.26;52.02;98152.13;5001914;28;19926;-76
2022/03/03 08:08:29;;;;;;;;;;;;;;;0.19;52.15;98146.94;5003416;28;20373;-78
2022/03/03 08:10:57;;;;;;;;;;;;;;;0.61;51.67;98151.97;5016670;28;19968;-75
2022/03/03 08:13:26;;;;;;;;;;;;;;;0.78;50.93;98149.31;5003727;28;19934;-73
2022/03/03 08:15:54;;;;;;;;;;;;;;;0.89;50.64;98147.59;5002241;28;19969;-83
2022/03/03 08:18:23;;;;;;;;;;;;;;;1.07;49.82;98157.28;4997058;28;19934;-77
2022/03/03 08:20:51;;;;;;;;;;;;;;;1.16;49.75;98155.78;4997679;28;19926;-73
2022/03/03 08:23:20;;;;;;;;;;;;;;;1.25;49.99;98138.28;4996458;28;19934;-73
2022/03/03 08:28:40;;;;;;;;;;;;;;;1.48;49.30;98153.31;4999288;28;20011;-80
2022/03/03 08:31:08;;;;;;;;;;;;;;;1.63;48.33;98152.72;5003998;28;19925;-77
2022/03/03 08:33:41;;;;;;;;;;;;;;;1.84;47.72;98151.94;5003050;28;19926;-78
2022/03/03 08:36:10;;;;;;;;;;;;;;;1.95;46.96;98144.81;5001137;28;19952;-78
2022/03/03 08:38:45;;;;;;;;;;;;;;;1.78;48.14;98145.69;4998520;28;19930;-78
2022/03/03 08:41:13;;;;;;;;;;;;;;;1.90;47.72;98145.56;5006682;28;19929;-81
2022/03/03 08:43:41;;;;;;;;;;;;;;;1.96;47.20;98141.88;4988894;28;19926;-79
2022/03/03 08:46:09;;;;;;;;;;;;;;;2.14;46.56;98135.41;5001249;28;19948;-77
2022/03/03 08:48:47;;;;;;;;;;;;;;;2.34;46.44;98140.16;5016150;28;19938;-78
2022/03/03 08:51:16;;;;;;;;;;;;;;;2.36;46.17;98138.88;4999832;28;20013;-79
2022/03/03 08:53:45;;;;;;;;;;;;;;;2.57;46.09;98139.88;4999594;28;19960;-78
2022/03/03 08:56:12;;;;;;;;;;;;;;;2.66;45.43;98126.00;5002447;28;19953;-76
2022/03/03 08:58:40;;;;;;;;;;;;;;;2.70;45.33;98124.44;4999056;28;19926;-79
2022/03/03 09:01:08;;;;;;;;;;;;;;;2.64;44.57;98126.25;4982487;28;20011;-79
2022/03/03 09:03:36;;;;;;;;;;;;;;;2.85;44.87;98117.31;4998288;28;19929;-79
2022/03/03 09:06:08;;;;;;;;;;;;;;;2.97;43.80;98108.28;5003685;28;19926;-79
2022/03/03 09:08:36;;;;;;;;;;;;;;;3.19;43.73;98110.84;5003333;28;19925;-82
2022/03/03 09:11:06;;;;;;;;;;;;;;;3.41;43.03;98103.50;4998519;28;19933;-79
2022/03/03 09:13:34;;;;;;;;;;;;;;;3.42;43.41;98100.53;5002901;28;20353;-82
2022/03/03 09:16:05;;;;;;;;;;;;;;;3.45;43.96;98101.88;5001726;28;19944;-79
2022/03/03 09:18:33;;;;;;;;;;;;;;;3.38;44.35;98104.81;5005140;28;19929;-82
2022/03/03 09:21:01;;;;;;;;;;;;;;;3.15;44.75;98095.28;5001056;28;20693;-80
2022/03/03 09:23:35;;;;;;;;;;;;;;;3.15;44.31;98089.09;5002605;28;19926;-78
2022/03/03 09:26:05;;;;;;;;;;;;;;;3.07;44.51;98095.75;5004874;28;19929;-80
2022/03/03 09:28:33;;;;;;;;;;;;;;;2.99;44.17;98090.06;4996821;28;20029;-78
2022/03/03 09:31:01;;;;;;;;;;;;;;;3.09;43.55;98080.19;4983602;28;19969;-80
2022/03/03 09:33:32;;;;;;;;;;;;;;;3.24;43.30;98081.34;5001785;28;19932;-81
2022/03/03 09:36:00;;;;;;;;;;;;;;;2.98;42.72;98086.53;5001723;28;19926;-76
2022/03/03 09:38:27;;;;;;;;;;;;;;;3.25;43.06;98080.28;4998074;28;19988;-77
2022/03/03 09:40:57;;;;;;;;;;;;;;;3.58;42.12;98071.06;4997860;28;20340;-81
2022/03/03 09:43:26;;;;;;;;;;;;;;;3.87;41.72;98079.50;5000562;28;19936;-82
2022/03/03 09:45:53;;;;;;;;;;;;;;;4.06;41.92;98072.59;4998422;28;19972;-79
2022/03/03 09:48:22;;;;;;;;;;;;;;;4.40;41.99;98061.34;5004934;28;19925;-80
2022/03/03 09:50:51;;;;;;;;;;;;;;;3.96;42.08;98050.25;5001652;28;20025;-77
2022/03/03 09:53:19;;;;;;;;;;;;;;;3.99;41.28;98053.19;4997358;28;19930;-79
2022/03/03 09:55:47;;;;;;;;;;;;;;;4.06;41.83;98059.13;5002841;28;19925;-80
2022/03/03 09:58:17;;;;;;;;;;;;;;;4.28;41.69;98048.16;5001520;28;20020;-77
2022/03/03 10:00:46;;;;;;;;;;;;;;;4.56;41.45;98043.34;5004906;28;19929;-78
2022/03/03 10:03:14;;;;;;;;;;;;;;;5.00;40.92;98043.56;4995957;28;19926;-80
2022/03/03 10:08:39;;;;;;;;;;;;;;;5.30;40.19;98047.28;4994375;28;19926;-74
2022/03/03 10:11:08;;;;;;;;;;;;;;;5.53;38.93;98050.16;4985380;28;19932;-81
2022/03/03 10:13:48;;;;;;;;;;;;;;;5.10;38.58;98042.75;5000163;28;20003;-83
2022/03/03 10:16:20;;;;;;;;;;;;;;;5.20;38.64;98040.84;4997594;28;19934;-87
2022/03/03 10:19:13;;;;;;;;;;;;;;;5.21;38.75;98038.94;5004865;28;19934;-88
2022/03/03 10:21:41;;;;;;;;;;;;;;;5.22;38.58;98052.16;4997196;28;19925;-83
2022/03/03 10:24:19;;;;;;;;;;;;;;;5.58;37.43;98045.84;4972759;28;21104;-77
2022/03/03 10:26:47;;;;;;;;;;;;;;;5.63;37.60;98048.53;4999069;28;19933;-88
2022/03/03 10:29:18;;;;;;;;;;;;;;;5.89;36.80;98043.81;5001495;28;19937;-90
2022/03/03 10:31:47;;;;;;;;;;;;;;;5.89;36.88;98047.31;4988048;28;19949;-90
2022/03/03 10:34:19;;;;;;;;;;;;;;;5.51;37.03;98048.84;4989551;28;19925;-76
2022/03/03 10:36:57;;;;;;;;;;;;;;;5.78;37.81;98051.16;4999107;28;19931;-87
2022/03/03 10:39:56;;;;;;;;;;;;;;;5.72;37.23;98044.97;4996006;28;20340;-90
2022/03/03 10:42:27;;;;;;;;;;;;;;;5.57;37.26;98047.72;5000039;28;19925;-90
2022/03/03 10:45:07;;;;;;;;;;;;;;;5.73;37.33;98046.59;4986748;28;20363;-87
2022/03/03 10:47:35;;;;;;;;;;;;;;;5.76;38.18;98046.03;4998033;28;19932;-89
2022/03/03 10:50:03;;;;;;;;;;;;;;;5.74;37.97;98042.81;5002162;28;20024;-89
2022/03/03 10:52:35;;;;;;;;;;;;;;;5.69;38.14;98040.13;5002873;28;20020;-89
2022/03/03 10:55:03;;;;;;;;;;;;;;;5.76;38.45;98046.03;4986391;28;19925;-91
2022/03/03 10:57:33;;;;;;;;;;;;;;;5.70;38.59;98047.16;4998039;28;19930;-89
2022/03/03 11:00:01;;;;;;;;;;;;;;;5.66;39.19;98048.78;4993967;28;19953;-91
2022/03/03 11:02:31;;;;;;;;;;;;;;;5.88;38.39;98048.41;5002683;28;19925;-87
2022/03/03 11:05:02;;;;;;;;;;;;;;;5.86;38.01;98039.81;4994463;28;19965;-88
2022/03/03 11:07:30;;;;;;;;;;;;;;;6.06;37.79;98038.91;4997920;28;20016;-88
2022/03/03 11:09:58;;;;;;;;;;;;;;;6.30;37.43;98041.75;4999217;28;20072;-88
2022/03/03 11:12:27;;;;;;;;;;;;;;;6.40;36.82;98030.06;4999436;28;20003;-77
2022/03/03 11:14:55;;;;;;;;;;;;;;;6.71;36.59;98028.75;4995527;28;20021;-74
2022/03/03 11:17:23;;;;;;;;;;;;;;;6.55;36.88;98027.22;4999981;28;19930;-74
2022/03/03 11:19:58;;;;;;;;;;;;;;;6.66;36.69;98019.84;5000031;28;19933;-74
2022/03/03 11:22:26;;;;;;;;;;;;;;;6.64;36.37;98016.66;5009616;28;19981;-86
2022/03/03 11:24:57;;;;;;;;;;;;;;;6.47;36.33;98022.44;4997403;28;19981;-82
2022/03/03 11:27:34;;;;;;;;;;;;;;;6.73;36.33;98010.34;5001285;28;19925;-83
2022/03/03 11:30:16;;;;;;;;;;;;;;;6.84;35.41;98011.06;5001879;28;19956;-84
2022/03/03 11:32:45;;;;;;;;;;;;;;;6.79;35.35;98006.53;5007522;28;20017;-83
2022/03/03 11:35:24;;;;;;;;;;;;;;;7.02;34.74;98001.44;5007764;28;19933;-84
2022/03/03 11:37:52;;;;;;;;;;;;;;;7.48;34.38;97998.25;5002028;28;19925;-86
2022/03/03 11:40:20;;;;;;;;;;;;;;;7.77;33.39;97992.72;5002726;28;20041;-82
2022/03/03 11:42:52;;;;;;;;;;;;;;;7.69;30.70;97987.97;4998325;28;19933;-83
2022/03/03 11:45:22;;;;;;;;;;;;;;;7.55;28.13;97985.97;5006735;28;19933;-83
2022/03/03 11:47:50;;;;;;;;;;;;;;;7.74;26.75;97983.31;5002096;28;19933;-86
2022/03/03 11:50:22;;;;;;;;;;;;;;;7.78;25.77;97976.22;5004928;28;19930;-85
2022/03/03 11:52:52;;;;;;;;;;;;;;;8.07;24.99;97972.56;5003699;28;19987;-84
2022/03/03 11:55:25;;;;;;;;;;;;;;;8.09;27.02;97981.97;4998495;28;20380;-85
2022/03/03 11:57:53;;;;;;;;;;;;;;;8.05;25.97;97972.88;4998052;28;19965;-85
2022/03/03 12:00:21;;;;;;;;;;;;;;;8.21;26.64;97965.31;5001478;28;19983;-86
2022/03/03 12:02:56;;;;;;;;;;;;;;;8.53;26.09;97966.47;4998259;28;19925;-87
2022/03/03 12:05:32;;;;;;;;;;;;;;;8.72;26.42;97963.69;4998441;28;19925;-80
2022/03/03 12:08:01;;;;;;;;;;;;;;;8.49;25.80;97962.75;5005754;28;19977;-85
2022/03/03 12:10:29;;;;;;;;;;;;;;;8.59;26.60;97954.44;4997533;28;19925;-86
2022/03/03 12:13:16;;;;;;;;;;;;;;;8.12;28.00;97954.34;5004811;28;19929;-87
2022/03/03 12:15:50;;;;;;;;;;;;;;;7.76;28.47;97951.34;5004885;28;19933;-87
2022/03/03 12:18:18;;;;;;;;;;;;;;;8.22;28.16;97945.28;5006853;28;19926;-82
2022/03/03 12:20:48;;;;;;;;;;;;;;;8.31;27.62;97935.41;5001549;28;19926;-88
2022/03/03 12:23:31;;;;;;;;;;;;;;;8.51;27.23;97941.59;5007914;28;19937;-87
2022/03/03 12:26:01;;;;;;;;;;;;;;;8.16;27.13;97932.94;5011641;28;19933;-83
2022/03/03 12:28:36;;;;;;;;;;;;;;;8.47;27.80;97938.69;5004642;28;19933;-85
2022/03/03 12:31:20;;;;;;;;;;;;;;;8.56;26.43;97925.25;5000837;28;19925;-86
2022/03/03 12:33:54;;;;;;;;;;;;;;;8.85;26.17;97914.97;4999174;28;20392;-85
2022/03/03 12:36:23;;;;;;;;;;;;;;;8.76;26.71;97913.25;4999596;28;19932;-85
2022/03/03 12:38:52;;;;;;;;;;;;;;;8.75;26.73;97907.03;5001115;28;19930;-84
2022/03/03 12:41:21;;;;;;;;;;;;;;;8.87;25.56;97911.97;5003270;28;19936;-85
2022/03/03 12:43:49;;;;;;;;;;;;;;;8.83;25.80;97894.69;4999725;28;20335;-83
2022/03/03 12:46:17;;;;;;;;;;;;;;;8.80;26.27;97889.88;5000591;28;20392;-85
2022/03/03 12:48:45;;;;;;;;;;;;;;;9.07;25.58;97895.31;5000927;28;19969;-87
2022/03/03 12:51:14;;;;;;;;;;;;;;;8.63;26.58;97885.06;5002248;28;19926;-77
2022/03/03 12:53:43;;;;;;;;;;;;;;;8.48;27.25;97888.03;4999933;28;19926;-92
2022/03/03 12:56:12;;;;;;;;;;;;;;;8.50;25.94;97883.91;4987377;28;20363;-79
2022/03/03 12:58:40;;;;;;;;;;;;;;;8.47;25.29;97883.69;5000216;28;20397;-79
2022/03/03 13:01:08;;;;;;;;;;;;;;;8.50;25.71;97875.81;5012824;28;19926;-79
2022/03/03 13:03:37;;;;;;;;;;;;;;;8.48;25.83;97879.91;4999714;28;20300;-80
2022/03/03 13:06:06;;;;;;;;;;;;;;;8.57;25.33;97878.09;4999522;28;20027;-77
2022/03/03 13:08:35;;;;;;;;;;;;;;;8.49;25.63;97879.63;5003715;28;19930;-78
2022/03/03 13:11:08;;;;;;;;;;;;;;;8.23;25.55;97876.50;5002193;28;20028;-81
2022/03/03 13:13:44;;;;;;;;;;;;;;;8.19;25.47;97870.06;5003070;28;19931;-80
2022/03/03 13:16:12;;;;;;;;;;;;;;;8.12;25.33;97866.97;4999210;28;19925;-81